Wetterdaten: Mittwoch, 22.10.2014
Datum Zeit Temp. A. Feuchte A. Luftdruck Regen Wind Richtung Richtung Sonnenschein ET UV Solar Taupunkt Windchill Windben Empfang
22.10.2014 00:00 7,9 C 81 % 1008,1 hPa 0,0 l/m 2,9 km/h (1 Bft) W-NW 296 0 min 0,000 mm 0,0 UV-I 0 W/m 4,8 C 7,9 C 4,0 km/h (1 Bft) 0,00 %
22.10.2014 00:15 7,7 C 80 % 1008,0 hPa 0,0 l/m 18,0 km/h (3 Bft) SW 235 0 min 0,000 mm 0,0 UV-I 0 W/m 4,5 C 1,1 C 24,1 km/h (4 Bft) 0,00 %
22.10.2014 00:30 7,6 C 81 % 1008,5 hPa 0,3 l/m 1,8 km/h (1 Bft) O-SO 121 0 min 0,000 mm 0,0 UV-I 0 W/m 4,6 C 7,6 C 4,0 km/h (1 Bft) 0,00 %
22.10.2014 00:45 7,2 C 80 % 1008,5 hPa 0,3 l/m 15,5 km/h (3 Bft) SW 231 0 min 0,000 mm 0,0 UV-I 0 W/m 4,0 C 1,5 C 19,8 km/h (3 Bft) 0,00 %
22.10.2014 01:00 7,2 C 78 % 1008,9 hPa 0,0 l/m 23,4 km/h (4 Bft) W-SW 255 0 min 0,000 mm 0,0 UV-I 0 W/m 3,6 C -1,5 C 32,0 km/h (5 Bft) 0,00 %
22.10.2014 01:15 7,2 C 78 % 1008,9 hPa 0,3 l/m 1,4 km/h (1 Bft) S-SW 203 0 min 0,000 mm 0,0 UV-I 0 W/m 3,6 C 7,2 C 4,0 km/h (1 Bft) 0,00 %
22.10.2014 01:30 7,3 C 77 % 1009,2 hPa 0,0 l/m 12,2 km/h (2 Bft) W-NW 287 0 min 0,000 mm 0,0 UV-I 0 W/m 3,5 C 3,3 C 24,1 km/h (4 Bft) 0,00 %
22.10.2014 01:45 7,4 C 77 % 1009,3 hPa 0,0 l/m 14,0 km/h (3 Bft) W-SW 253 0 min 0,000 mm 0,0 UV-I 0 W/m 3,6 C 2,5 C 19,8 km/h (3 Bft) 0,00 %
22.10.2014 02:00 7,4 C 77 % 1009,5 hPa 0,0 l/m 10,4 km/h (2 Bft) W 269 0 min 0,000 mm 0,0 UV-I 0 W/m 3,6 C 4,5 C 15,8 km/h (3 Bft) 0,00 %
22.10.2014 02:15 7,4 C 76 % 1009,5 hPa 0,0 l/m 1,4 km/h (1 Bft) W-NW 291 0 min 0,000 mm 0,0 UV-I 0 W/m 3,5 C 7,4 C 4,0 km/h (1 Bft) 0,00 %
22.10.2014 02:30 7,3 C 73 % 1009,6 hPa 0,0 l/m 1,8 km/h (1 Bft) O-NO 78 0 min 0,000 mm 0,0 UV-I 0 W/m 2,8 C 7,3 C 4,0 km/h (1 Bft) 0,00 %
22.10.2014 02:45 7,1 C 73 % 1009,4 hPa 0,0 l/m 0,0 km/h (0 Bft) S 179 0 min 0,000 mm 0,0 UV-I 0 W/m 2,6 C 7,1 C 0,0 km/h (0 Bft) 0,00 %
22.10.2014 03:00 7,0 C 75 % 1009,4 hPa 0,0 l/m 1,8 km/h (1 Bft) W 280 0 min 0,000 mm 0,0 UV-I 0 W/m 2,9 C 7,0 C 4,0 km/h (1 Bft) 0,00 %
22.10.2014 03:15 7,0 C 75 % 1008,9 hPa 0,0 l/m 7,9 km/h (2 Bft) NW 304 0 min 0,000 mm 0,0 UV-I 0 W/m 2,9 C 5,8 C 11,9 km/h (2 Bft) 0,00 %
22.10.2014 03:30 6,9 C 74 % 1008,9 hPa 0,0 l/m 0,4 km/h (0 Bft) W-SW 253 0 min 0,000 mm 0,0 UV-I 0 W/m 2,6 C 6,9 C 4,0 km/h (1 Bft) 0,00 %
22.10.2014 03:45 6,9 C 74 % 1009,1 hPa 0,0 l/m 4,3 km/h (1 Bft) NO 44 0 min 0,000 mm 0,0 UV-I 0 W/m 2,6 C 6,9 C 7,9 km/h (2 Bft) 0,00 %
22.10.2014 04:00 7,0 C 72 % 1009,3 hPa 0,0 l/m 7,9 km/h (2 Bft) S-SW 201 0 min 0,000 mm 0,0 UV-I 0 W/m 2,3 C 5,8 C 19,8 km/h (3 Bft) 0,00 %
22.10.2014 04:15 6,8 C 72 % 1009,3 hPa 0,0 l/m 1,4 km/h (1 Bft) O 97 0 min 0,000 mm 0,0 UV-I 0 W/m 2,1 C 6,8 C 4,0 km/h (1 Bft) 0,00 %
22.10.2014 04:30 6,8 C 74 % 1008,9 hPa 0,0 l/m 2,2 km/h (1 Bft) W 276 0 min 0,000 mm 0,0 UV-I 0 W/m 2,5 C 6,8 C 4,0 km/h (1 Bft) 0,00 %
22.10.2014 04:45 6,6 C 74 % 1007,8 hPa 0,0 l/m 7,2 km/h (2 Bft) W-SW 255 0 min 0,000 mm 0,0 UV-I 0 W/m 2,3 C 5,9 C 11,9 km/h (2 Bft) 0,00 %
22.10.2014 05:00 6,6 C 74 % 1007,9 hPa 0,0 l/m 1,8 km/h (1 Bft) SW 229 0 min 0,000 mm 0,0 UV-I 0 W/m 2,3 C 6,6 C 4,0 km/h (1 Bft) 0,00 %
22.10.2014 05:15 6,7 C 72 % 1008,5 hPa 0,0 l/m 0,4 km/h (0 Bft) N-NW 348 0 min 0,000 mm 0,0 UV-I 0 W/m 2,0 C 6,7 C 4,0 km/h (1 Bft) 0,00 %
22.10.2014 05:30 6,5 C 74 % 1008,9 hPa 0,0 l/m 7,2 km/h (2 Bft) S-SO 147 0 min 0,000 mm 0,0 UV-I 0 W/m 2,2 C 5,8 C 15,8 km/h (3 Bft) 0,00 %
22.10.2014 05:45 6,2 C 76 % 1008,6 hPa 0,0 l/m 7,9 km/h (2 Bft) W-SW 255 0 min 0,000 mm 0,0 UV-I 0 W/m 2,3 C 4,9 C 11,9 km/h (2 Bft) 0,00 %
22.10.2014 06:00 6,3 C 74 % 1009,1 hPa 0,0 l/m 1,4 km/h (1 Bft) NO 51 0 min 0,000 mm 0,0 UV-I 0 W/m 2,0 C 6,3 C 4,0 km/h (1 Bft) 0,00 %
22.10.2014 06:15 6,2 C 74 % 1009,0 hPa 0,0 l/m 0,4 km/h (0 Bft) S-SW 211 0 min 0,000 mm 0,0 UV-I 0 W/m 1,9 C 6,2 C 4,0 km/h (1 Bft) 0,00 %
22.10.2014 06:30 6,3 C 73 % 1008,9 hPa 0,0 l/m 0,7 km/h (0 Bft) O-SO 107 0 min 0,000 mm 0,0 UV-I 0 W/m 1,8 C 6,3 C 4,0 km/h (1 Bft) 0,00 %
22.10.2014 06:45 6,4 C 72 % 1008,9 hPa 0,0 l/m 4,3 km/h (1 Bft) O 101 0 min 0,000 mm 0,0 UV-I 0 W/m 1,7 C 6,4 C 7,9 km/h (2 Bft) 0,00 %
22.10.2014 07:00 6,3 C 71 % 1008,6 hPa 0,0 l/m 3,2 km/h (1 Bft) SW 228 0 min 0,000 mm 0,0 UV-I 0 W/m 1,4 C 6,3 C 7,9 km/h (2 Bft) 0,00 %
22.10.2014 07:15 6,2 C 71 % 1009,0 hPa 0,0 l/m 0,4 km/h (0 Bft) W-NW 299 0 min 0,000 mm 0,0 UV-I 0 W/m 1,3 C 6,2 C 4,0 km/h (1 Bft) 0,00 %
22.10.2014 07:30 6,1 C 71 % 1009,2 hPa 0,0 l/m 2,9 km/h (1 Bft) W 264 0 min 0,000 mm 0,0 UV-I 0 W/m 1,2 C 6,1 C 4,0 km/h (1 Bft) 0,00 %
22.10.2014 07:45 6,2 C 69 % 1008,8 hPa 0,0 l/m 11,5 km/h (2 Bft) W-SW 251 0 min 0,000 mm 0,0 UV-I 0 W/m 0,9 C 2,4 C 15,8 km/h (3 Bft) 0,00 %
22.10.2014 08:00 6,2 C 70 % 1009,5 hPa 0,0 l/m 7,2 km/h (2 Bft) W-SW 256 15 min 0,000 mm 0,0 UV-I 51 W/m 1,1 C 5,5 C 11,9 km/h (2 Bft) 0,00 %
22.10.2014 08:15 6,1 C 70 % 1009,5 hPa 0,0 l/m 0,7 km/h (0 Bft) N-NW 331 15 min 0,000 mm 0,0 UV-I 95 W/m 1,0 C 6,1 C 4,0 km/h (1 Bft) 0,00 %
22.10.2014 08:30 6,3 C 70 % 1009,4 hPa 0,0 l/m 0,7 km/h (0 Bft) O-SO 115 15 min 0,000 mm 0,0 UV-I 95 W/m 1,2 C 6,3 C 4,0 km/h (1 Bft) 0,00 %
22.10.2014 08:45 6,3 C 70 % 1009,5 hPa 0,0 l/m 9,4 km/h (2 Bft) NW 312 0 min 0,000 mm 0,0 UV-I 85 W/m 1,2 C 3,9 C 19,8 km/h (3 Bft) 0,00 %
22.10.2014 09:00 6,5 C 68 % 1009,3 hPa 0,0 l/m 2,9 km/h (1 Bft) W-SW 256 15 min 0,000 mm 1,0 UV-I 238 W/m 1,0 C 6,5 C 7,9 km/h (2 Bft) 0,00 %
22.10.2014 09:15 6,7 C 68 % 1009,3 hPa 0,0 l/m 4,7 km/h (1 Bft) W-NW 294 15 min 0,000 mm 1,0 UV-I 353 W/m 1,2 C 6,7 C 7,9 km/h (2 Bft) 0,00 %
22.10.2014 09:30 6,8 C 68 % 1009,3 hPa 0,0 l/m 6,5 km/h (2 Bft) W-SW 253 15 min 0,000 mm 1,0 UV-I 375 W/m 1,3 C 6,7 C 7,9 km/h (2 Bft) 0,00 %
22.10.2014 09:45 6,5 C 70 % 1009,4 hPa 0,0 l/m 2,2 km/h (1 Bft) W-SW 255 0 min 0,000 mm 1,0 UV-I 131 W/m 1,4 C 6,5 C 4,0 km/h (1 Bft) 0,00 %
22.10.2014 10:00 6,4 C 72 % 1009,4 hPa 0,0 l/m 0,7 km/h (0 Bft) W-SW 253 0 min 0,000 mm 0,0 UV-I 36 W/m 1,7 C 6,4 C 4,0 km/h (1 Bft) 0,00 %
22.10.2014 10:15 6,0 C 76 % 1009,2 hPa 0,0 l/m 5,4 km/h (1 Bft) S-SW 199 0 min 0,000 mm 1,0 UV-I 102 W/m 2,1 C 6,0 C 7,9 km/h (2 Bft) 0,00 %
22.10.2014 10:30 5,5 C 79 % 1009,4 hPa 0,3 l/m 6,8 km/h (2 Bft) W-SW 252 15 min 0,000 mm 1,0 UV-I 250 W/m 2,2 C 5,2 C 7,9 km/h (2 Bft) 0,00 %
22.10.2014 10:45 5,5 C 79 % 1009,3 hPa 0,3 l/m 2,9 km/h (1 Bft) O-SO 119 0 min 0,000 mm 1,0 UV-I 211 W/m 2,2 C 5,5 C 4,0 km/h (1 Bft) 0,00 %
22.10.2014 11:00 5,4 C 80 % 1009,4 hPa 0,0 l/m 4,3 km/h (1 Bft) O 99 15 min 0,000 mm 1,0 UV-I 253 W/m 2,2 C 5,4 C 11,9 km/h (2 Bft) 0,00 %
22.10.2014 11:15 5,3 C 79 % 1009,7 hPa 0,0 l/m 2,9 km/h (1 Bft) W-SW 253 15 min 0,000 mm 1,0 UV-I 305 W/m 2,0 C 5,3 C 4,0 km/h (1 Bft) 0,00 %
22.10.2014 11:30 5,4 C 79 % 1009,7 hPa 0,0 l/m 4,7 km/h (1 Bft) W-SW 252 15 min 0,000 mm 1,0 UV-I 411 W/m 2,1 C 5,4 C 7,9 km/h (2 Bft) 0,00 %
22.10.2014 11:45 5,4 C 78 % 1009,8 hPa 0,0 l/m 0,4 km/h (0 Bft) N-NO 23 15 min 0,000 mm 1,0 UV-I 353 W/m 1,9 C 5,4 C 4,0 km/h (1 Bft) 0,00 %
22.10.2014 12:00 5,4 C 76 % 1010,0 hPa 0,0 l/m 2,9 km/h (1 Bft) S 181 15 min 0,000 mm 1,0 UV-I 347 W/m 1,5 C 5,4 C 7,9 km/h (2 Bft) 0,00 %
22.10.2014 12:15 5,4 C 76 % 1010,1 hPa 0,0 l/m 1,4 km/h (1 Bft) W-SW 256 0 min 0,000 mm 1,0 UV-I 243 W/m 1,5 C 5,4 C 4,0 km/h (1 Bft) 0,00 %
22.10.2014 12:30 5,0 C 79 % 1010,4 hPa 0,3 l/m 9,7 km/h (2 Bft) W-SW 252 0 min 0,000 mm 0,0 UV-I 91 W/m 1,7 C 2,3 C 11,9 km/h (2 Bft) 0,00 %
22.10.2014 12:45 4,6 C 80 % 1010,3 hPa 0,3 l/m 14,0 km/h (3 Bft) W-SW 251 0 min 0,000 mm 1,0 UV-I 119 W/m 1,5 C -0,9 C 15,8 km/h (3 Bft) 0,00 %
22.10.2014 13:00 4,5 C 80 % 1010,1 hPa 0,0 l/m 5,4 km/h (1 Bft) W-NW 303 0 min 0,000 mm 1,0 UV-I 202 W/m 1,4 C 4,5 C 15,8 km/h (3 Bft) 0,00 %
22.10.2014 13:15 4,3 C 81 % 1010,3 hPa 0,0 l/m 5,8 km/h (2 Bft) W-SW 255 0 min 0,000 mm 1,0 UV-I 191 W/m 1,3 C 4,3 C 7,9 km/h (2 Bft) 0,00 %
22.10.2014 13:30 4,2 C 82 % 1010,3 hPa 0,0 l/m 7,9 km/h (2 Bft) O-NO 58 0 min 0,000 mm 1,0 UV-I 170 W/m 1,4 C 2,8 C 11,9 km/h (2 Bft) 0,00 %
22.10.2014 13:45 4,5 C 81 % 1009,9 hPa 0,3 l/m 0,0 km/h (0 Bft) W-SW 256 0 min 0,000 mm 1,0 UV-I 243 W/m 1,5 C 4,5 C 0,0 km/h (0 Bft) 0,00 %
22.10.2014 14:00 5,3 C 79 % 1009,9 hPa 0,0 l/m 2,2 km/h (1 Bft) NW 315 15 min 0,000 mm 1,0 UV-I 377 W/m 2,0 C 5,3 C 7,9 km/h (2 Bft) 0,00 %
22.10.2014 14:15 5,7 C 77 % 1009,6 hPa 0,0 l/m 6,8 km/h (2 Bft) SW 228 15 min 0,000 mm 1,0 UV-I 300 W/m 2,0 C 5,4 C 11,9 km/h (2 Bft) 0,00 %
22.10.2014 14:30 5,7 C 77 % 1009,7 hPa 0,0 l/m 6,8 km/h (2 Bft) W-SW 257 0 min 0,000 mm 1,0 UV-I 166 W/m 2,0 C 5,4 C 11,9 km/h (2 Bft) 0,00 %
22.10.2014 14:45 5,7 C 76 % 1009,6 hPa 0,0 l/m 9,0 km/h (2 Bft) N 349 15 min 0,000 mm 1,0 UV-I 254 W/m 1,8 C 3,6 C 19,8 km/h (3 Bft) 0,00 %
22.10.2014 15:00 6,1 C 74 % 1009,4 hPa 0,0 l/m 5,8 km/h (2 Bft) SW 236 15 min 0,000 mm 1,0 UV-I 257 W/m 1,8 C 6,1 C 11,9 km/h (2 Bft) 0,00 %
22.10.2014 15:15 6,1 C 73 % 1009,4 hPa 0,0 l/m 0,7 km/h (0 Bft) NO 40 0 min 0,000 mm 1,0 UV-I 196 W/m 1,6 C 6,1 C 4,0 km/h (1 Bft) 0,00 %
22.10.2014 15:30 6,1 C 73 % 1009,6 hPa 0,0 l/m 6,5 km/h (2 Bft) SW 221 15 min 0,000 mm 1,0 UV-I 231 W/m 1,6 C 6,0 C 11,9 km/h (2 Bft) 0,00 %
22.10.2014 15:45 6,0 C 75 % 1009,9 hPa 0,0 l/m 13,3 km/h (3 Bft) SW 233 15 min 0,000 mm 1,0 UV-I 253 W/m 1,9 C 1,2 C 28,1 km/h (4 Bft) 0,00 %
22.10.2014 16:00 5,6 C 78 % 1010,0 hPa 0,0 l/m 10,8 km/h (2 Bft) N 357 0 min 0,000 mm 1,0 UV-I 142 W/m 2,1 C 2,2 C 19,8 km/h (3 Bft) 0,00 %
22.10.2014 16:15 5,6 C 78 % 1010,0 hPa 0,0 l/m 1,8 km/h (1 Bft) SW 224 0 min 0,000 mm 0,0 UV-I 64 W/m 2,1 C 5,6 C 4,0 km/h (1 Bft) 0,00 %
22.10.2014 16:30 5,4 C 80 % 1010,2 hPa 0,0 l/m 7,9 km/h (2 Bft) N 357 0 min 0,000 mm 0,0 UV-I 77 W/m 2,2 C 4,1 C 11,9 km/h (2 Bft) 0,00 %
22.10.2014 16:45 5,3 C 79 % 1010,2 hPa 0,0 l/m 7,2 km/h (2 Bft) W-SW 254 0 min 0,000 mm 0,0 UV-I 3 W/m 2,0 C 4,6 C 11,9 km/h (2 Bft) 0,00 %
22.10.2014 17:00 5,3 C 77 % 1010,1 hPa 0,0 l/m 14,8 km/h (3 Bft) W-SW 255 0 min 0,000 mm 0,0 UV-I 0 W/m 1,6 C -0,5 C 19,8 km/h (3 Bft) 0,00 %
22.10.2014 17:15 5,3 C 77 % 1009,8 hPa 0,0 l/m 7,2 km/h (2 Bft) NW 311 0 min 0,000 mm 0,0 UV-I 0 W/m 1,6 C 4,6 C 11,9 km/h (2 Bft) 0,00 %
22.10.2014 17:30 5,3 C 77 % 1009,8 hPa 0,0 l/m 8,3 km/h (2 Bft) W-SW 251 0 min 0,000 mm 0,0 UV-I 0 W/m 1,6 C 3,7 C 11,9 km/h (2 Bft) 0,00 %
22.10.2014 17:45 5,3 C 76 % 1010,0 hPa 0,0 l/m 9,4 km/h (2 Bft) SW 216 0 min 0,000 mm 0,0 UV-I 0 W/m 1,4 C 2,8 C 19,8 km/h (3 Bft) 0,00 %
22.10.2014 18:00 5,3 C 76 % 1010,0 hPa 0,0 l/m 14,0 km/h (3 Bft) S-SW 207 0 min 0,000 mm 0,0 UV-I 0 W/m 1,4 C -0,0 C 24,1 km/h (4 Bft) 0,00 %
22.10.2014 18:15 5,3 C 75 % 1010,0 hPa 0,0 l/m 3,2 km/h (1 Bft) W-SW 253 0 min 0,000 mm 0,0 UV-I 0 W/m 1,2 C 5,3 C 7,9 km/h (2 Bft) 0,00 %
22.10.2014 18:30 5,2 C 77 % 1010,1 hPa 0,0 l/m 4,3 km/h (1 Bft) NW 323 0 min 0,000 mm 0,0 UV-I 0 W/m 1,5 C 5,2 C 7,9 km/h (2 Bft) 0,00 %
22.10.2014 18:45 5,2 C 78 % 1009,9 hPa 0,0 l/m 1,8 km/h (1 Bft) W-NW 293 0 min 0,000 mm 0,0 UV-I 0 W/m 1,7 C 5,2 C 4,0 km/h (1 Bft) 0,00 %
22.10.2014 19:00 5,0 C 79 % 1009,7 hPa 0,0 l/m 8,3 km/h (2 Bft) W-NW 283 0 min 0,000 mm 0,0 UV-I 0 W/m 1,7 C 3,4 C 11,9 km/h (2 Bft) 0,00 %
22.10.2014 19:15 4,9 C 80 % 1009,7 hPa 0,0 l/m 6,5 km/h (2 Bft) N-NW 339 0 min 0,000 mm 0,0 UV-I 0 W/m 1,7 C 4,8 C 15,8 km/h (3 Bft) 0,00 %
22.10.2014 19:30 4,8 C 80 % 1009,4 hPa 0,3 l/m 0,4 km/h (0 Bft) O 82 0 min 0,000 mm 0,0 UV-I 0 W/m 1,6 C 4,8 C 4,0 km/h (1 Bft) 0,00 %
22.10.2014 19:45 4,7 C 81 % 1009,5 hPa 0,0 l/m 1,8 km/h (1 Bft) N-NW 342 0 min 0,000 mm 0,0 UV-I 0 W/m 1,7 C 4,7 C 4,0 km/h (1 Bft) 0,00 %
22.10.2014 20:00 4,7 C 81 % 1009,6 hPa 0,3 l/m 3,2 km/h (1 Bft) W-SW 251 0 min 0,000 mm 0,0 UV-I 0 W/m 1,7 C 4,7 C 7,9 km/h (2 Bft) 0,00 %
22.10.2014 20:15 4,6 C 81 % 1009,6 hPa 0,0 l/m 7,2 km/h (2 Bft) N-NW 330 0 min 0,000 mm 0,0 UV-I 0 W/m 1,6 C 3,9 C 11,9 km/h (2 Bft) 0,00 %
22.10.2014 20:30 4,5 C 81 % 1009,6 hPa 0,3 l/m 20,9 km/h (4 Bft) N-NW 344 0 min 0,000 mm 0,0 UV-I 0 W/m 1,5 C -4,2 C 24,1 km/h (4 Bft) 0,00 %
22.10.2014 20:45 4,4 C 81 % 1009,7 hPa 0,0 l/m 0,7 km/h (0 Bft) W-SW 255 0 min 0,000 mm 0,0 UV-I 0 W/m 1,4 C 4,4 C 4,0 km/h (1 Bft) 0,00 %
22.10.2014 21:00 4,4 C 81 % 1009,9 hPa 0,3 l/m 3,2 km/h (1 Bft) W-SW 256 0 min 0,000 mm 0,0 UV-I 0 W/m 1,4 C 4,4 C 4,0 km/h (1 Bft) 0,00 %
22.10.2014 21:15 4,2 C 83 % 1009,6 hPa 0,3 l/m 0,7 km/h (0 Bft) O-SO 122 0 min 0,000 mm 0,0 UV-I 0 W/m 1,6 C 4,2 C 4,0 km/h (1 Bft) 0,00 %
22.10.2014 21:30 4,1 C 82 % 1009,6 hPa 0,0 l/m 9,0 km/h (2 Bft) W-SW 252 0 min 0,000 mm 0,0 UV-I 0 W/m 1,3 C 1,8 C 15,8 km/h (3 Bft) 0,00 %
22.10.2014 21:45 4,1 C 83 % 1009,8 hPa 0,0 l/m 9,0 km/h (2 Bft) W-SW 241 0 min 0,000 mm 0,0 UV-I 0 W/m 1,5 C 1,8 C 15,8 km/h (3 Bft) 0,00 %
22.10.2014 22:00 4,2 C 83 % 1009,6 hPa 0,3 l/m 6,8 km/h (2 Bft) W-SW 255 0 min 0,000 mm 0,0 UV-I 0 W/m 1,6 C 3,8 C 11,9 km/h (2 Bft) 0,00 %
22.10.2014 22:15 3,9 C 83 % 1009,8 hPa 0,0 l/m 6,8 km/h (2 Bft) W-SW 255 0 min 0,000 mm 0,0 UV-I 0 W/m 1,3 C 3,5 C 11,9 km/h (2 Bft) 0,00 %
22.10.2014 22:30 3,7 C 83 % 1009,6 hPa 0,0 l/m 6,8 km/h (2 Bft) W-SW 256 0 min 0,000 mm 0,0 UV-I 0 W/m 1,1 C 3,3 C 7,9 km/h (2 Bft) 0,00 %
22.10.2014 22:45 3,7 C 83 % 1009,4 hPa 0,0 l/m 1,8 km/h (1 Bft) S-SO 160 0 min 0,000 mm 0,0 UV-I 0 W/m 1,1 C 3,7 C 4,0 km/h (1 Bft) 0,00 %
22.10.2014 23:00 3,6 C 83 % 1009,6 hPa 0,0 l/m 6,5 km/h (2 Bft) W-SW 256 0 min 0,000 mm 0,0 UV-I 0 W/m 1,0 C 3,5 C 11,9 km/h (2 Bft) 0,00 %
22.10.2014 23:15 3,5 C 83 % 1009,6 hPa 0,3 l/m 0,4 km/h (0 Bft) W-SW 255 0 min 0,000 mm 0,0 UV-I 0 W/m 0,9 C 3,5 C 4,0 km/h (1 Bft) 0,00 %
22.10.2014 23:30 3,4 C 84 % 1009,3 hPa 0,0 l/m 8,3 km/h (2 Bft) S 172 0 min 0,000 mm 0,0 UV-I 0 W/m 1,0 C 1,7 C 15,8 km/h (3 Bft) 0,00 %
22.10.2014 23:45 3,3 C 83 % 1009,3 hPa 0,0 l/m 6,8 km/h (2 Bft) SO 132 0 min 0,000 mm 0,0 UV-I 0 W/m 0,7 C 2,9 C 11,9 km/h (2 Bft) 0,00 %
_ Min-Zeit 23:45 09:00 04:45 - 02:45 - - - - - - 23:45 20:30 02:45 00:00
Minimum _ 3,3 C 68 % 1007,8 hPa - 0,0 km/h (0 Bft) - - - - - - 0,7 C -4,2 C 0,0 km/h (0 Bft) 0,00 %
_ Max-Zeit 00:00 23:30 12:30 00:30 01:00 - - 08:00 00:00 09:00 11:30 00:00 00:00 01:00 00:00
Maximum _ 7,9 C 84 % 1010,4 hPa 0,3 l/m 23,4 km/h
W-SW (4 Bft)
- - 15 min 0,000 mm 1,0 UV-I 411 W/m 4,8 C 7,9 C 32,0 km/h
W-SW (5 Bft)
0,00 %
Durchschnitt _ 5,7 C 77 % 1009,5 hPa #4,5 l/m 5,7 km/h (1 Bft) W-SW - #4:30 h #0,000 mm 1,0 UV-I 202 W/m 1,9 C 4,6 C 10,2 km/h (2 Bft) 0,00 %